createdAt,value
2022-08-17T00:02:26.887Z,97219.75
2022-08-17T00:05:32.306Z,97218.91
2022-08-17T00:08:37.536Z,97217.44
2022-08-17T00:11:42.874Z,97212.97
2022-08-17T00:15:08.336Z,97211.84
2022-08-17T00:19:05.776Z,97206.50
2022-08-17T00:22:31.003Z,97204.81
2022-08-17T00:24:59.118Z,97205.97
2022-08-17T00:28:01.921Z,97201.47
2022-08-17T00:31:04.315Z,97207.81
2022-08-17T00:34:08.962Z,97204.00
2022-08-17T00:37:11.017Z,97203.88
2022-08-17T00:40:16.126Z,97201.53
2022-08-17T00:43:28.942Z,97189.91
2022-08-17T00:46:39.474Z,97195.59
2022-08-17T00:49:41.606Z,97192.59
2022-08-17T00:52:50.580Z,97200.28
2022-08-17T00:55:53.504Z,97200.44
2022-08-17T00:58:57.611Z,97205.28
2022-08-17T01:02:00.689Z,97204.13
2022-08-17T01:05:03.058Z,97200.78
2022-08-17T01:08:09.388Z,97206.94
2022-08-17T01:11:11.450Z,97204.97
2022-08-17T01:14:13.805Z,97207.28
2022-08-17T01:17:15.983Z,97202.47
2022-08-17T01:20:18.150Z,97204.47
2022-08-17T01:23:23.838Z,97208.66
2022-08-17T01:26:26.758Z,97207.16
2022-08-17T01:29:31.111Z,97203.97
2022-08-17T01:32:33.421Z,97199.34
2022-08-17T01:35:35.438Z,97206.63
2022-08-17T01:38:38.642Z,97213.47
2022-08-17T01:41:41.279Z,97216.81
2022-08-17T01:44:43.356Z,97214.47
2022-08-17T01:47:47.745Z,97213.63
2022-08-17T01:50:52.846Z,97222.78
2022-08-17T01:53:59.095Z,97215.63
2022-08-17T01:57:01.353Z,97213.13
2022-08-17T02:00:07.082Z,97215.31
2022-08-17T02:03:14.197Z,97212.47
2022-08-17T02:06:27.518Z,97217.78
2022-08-17T02:09:30.714Z,97220.44
2022-08-17T02:12:39.279Z,97217.78
2022-08-17T02:15:42.293Z,97219.13
2022-08-17T02:18:44.340Z,97212.16
2022-08-17T02:21:49.796Z,97218.06
2022-08-17T02:24:58.194Z,97227.03
2022-08-17T02:28:04.817Z,97221.41
2022-08-17T02:31:09.589Z,97216.25
2022-08-17T02:34:12.601Z,97223.72
2022-08-17T02:37:17.796Z,97219.72
2022-08-17T02:40:35.685Z,97223.38
2022-08-17T02:43:38.730Z,97220.22
2022-08-17T02:46:40.753Z,97223.03
2022-08-17T02:49:47.572Z,97223.53
2022-08-17T02:53:01.568Z,97214.06
2022-08-17T02:56:04.753Z,97220.19
2022-08-17T02:59:11.172Z,97216.25
2022-08-17T03:02:13.523Z,97220.22
2022-08-17T03:05:19.234Z,97219.22
2022-08-17T03:08:21.242Z,97221.41
2022-08-17T03:11:24.253Z,97222.19
2022-08-17T03:14:26.461Z,97220.34
2022-08-17T03:17:28.431Z,97225.16
2022-08-17T03:20:33.110Z,97222.50
2022-08-17T03:23:41.178Z,97219.66
2022-08-17T03:26:43.762Z,97225.50
2022-08-17T03:29:45.887Z,97219.81
2022-08-17T03:32:50.598Z,97222.31
2022-08-17T03:35:52.893Z,97225.50
2022-08-17T03:38:54.914Z,97225.34
2022-08-17T03:42:32.201Z,97221.69
2022-08-17T03:45:54.274Z,97223.81
2022-08-17T03:49:15.685Z,97227.63
2022-08-17T03:52:36.166Z,97231.81
2022-08-17T03:55:57.382Z,97221.00
2022-08-17T03:58:59.391Z,97228.16
2022-08-17T04:02:09.418Z,97230.28
2022-08-17T04:05:11.524Z,97234.28
2022-08-17T04:08:13.817Z,97232.25
2022-08-17T04:11:15.803Z,97237.56
2022-08-17T04:14:17.920Z,97239.88
2022-08-17T04:17:20.410Z,97234.88
2022-08-17T04:20:24.436Z,97233.41
2022-08-17T04:23:32.866Z,97239.91
2022-08-17T04:26:53.024Z,97239.75
2022-08-17T04:29:56.551Z,97233.59
2022-08-17T04:33:07.368Z,97232.28
2022-08-17T04:36:10.696Z,97231.78
2022-08-17T04:39:12.730Z,97231.63
2022-08-17T04:42:17.396Z,97242.13
2022-08-17T04:45:19.393Z,97236.28
2022-08-17T04:48:22.048Z,97234.00
2022-08-17T04:51:37.053Z,97238.19
2022-08-17T04:54:39.098Z,97236.91
2022-08-17T04:57:45.063Z,97246.03
2022-08-17T05:00:47.714Z,97240.84
2022-08-17T05:03:50.570Z,97252.38
2022-08-17T05:06:54.796Z,97255.69
2022-08-17T05:09:56.786Z,97260.84
2022-08-17T05:13:06.002Z,97255.81
2022-08-17T05:16:09.338Z,97253.38
2022-08-17T05:19:11.610Z,97255.03
2022-08-17T05:22:14.876Z,97249.72
2022-08-17T05:25:25.727Z,97251.56
2022-08-17T05:28:28.286Z,97246.09
2022-08-17T05:31:31.752Z,97247.41
2022-08-17T05:34:33.784Z,97254.38
2022-08-17T05:37:35.806Z,97247.88
2022-08-17T05:40:38.535Z,97250.50
2022-08-17T05:43:42.709Z,97244.03
2022-08-17T05:46:49.353Z,97249.97
2022-08-17T05:49:51.503Z,97253.75
2022-08-17T05:53:31.009Z,97252.44
2022-08-17T05:56:43.951Z,97246.41
2022-08-17T06:00:08.354Z,97240.94
2022-08-17T06:03:30.123Z,97243.09
2022-08-17T06:06:38.505Z,97241.47
2022-08-17T06:09:51.725Z,97244.00
2022-08-17T06:13:12.808Z,97245.47
2022-08-17T06:16:33.554Z,97242.59
2022-08-17T06:20:06.209Z,97251.66
2022-08-17T06:23:14.939Z,97246.53
2022-08-17T06:26:25.876Z,97245.09
2022-08-17T06:29:41.434Z,97247.53
2022-08-17T06:32:46.913Z,97246.50
2022-08-17T06:36:25.560Z,97248.00
2022-08-17T06:39:46.079Z,97254.56
2022-08-17T06:43:06.180Z,97259.28
2022-08-17T06:46:15.562Z,97252.78
2022-08-17T06:49:21.974Z,97259.81
2022-08-17T06:52:47.187Z,97259.44
2022-08-17T06:56:53.104Z,97258.31
2022-08-17T07:00:04.862Z,97251.44
2022-08-17T07:03:21.048Z,97250.66
2022-08-17T07:06:49.433Z,97245.59
2022-08-17T07:09:53.282Z,97247.03
2022-08-17T07:13:03.426Z,97248.00
2022-08-17T07:16:28.207Z,97252.34
2022-08-17T07:19:33.107Z,97250.00
2022-08-17T07:23:00.468Z,97248.44
2022-08-17T07:26:09.357Z,97243.13
2022-08-17T07:29:16.502Z,97252.44
2022-08-17T07:32:32.011Z,97242.28
2022-08-17T07:35:41.326Z,97252.47
2022-08-17T07:38:57.776Z,97255.91
2022-08-17T07:42:04.584Z,97248.16
2022-08-17T07:45:28.491Z,97229.81
2022-08-17T07:48:37.269Z,97235.13
2022-08-17T07:51:39.725Z,97240.88
2022-08-17T07:54:42.978Z,97244.47
2022-08-17T07:57:57.654Z,97240.88
2022-08-17T08:01:10.347Z,97238.06
2022-08-17T08:04:49.880Z,97243.56
2022-08-17T08:07:57.267Z,97240.81
2022-08-17T08:11:07.555Z,97225.34
2022-08-17T08:14:31.406Z,97228.53
2022-08-17T08:17:36.916Z,97224.75
2022-08-17T08:20:53.312Z,97231.56
2022-08-17T08:24:06.255Z,97227.28
2022-08-17T08:27:10.929Z,97233.13
2022-08-17T08:30:18.588Z,97229.28
2022-08-17T08:33:49.922Z,97227.78
2022-08-17T08:36:59.298Z,97229.19
2022-08-17T08:40:41.100Z,97223.84
2022-08-17T08:43:55.329Z,97225.56
2022-08-17T08:47:19.520Z,97230.03
2022-08-17T08:50:40.650Z,97227.38
2022-08-17T08:53:59.611Z,97231.59
2022-08-17T08:57:30.970Z,97240.63
2022-08-17T09:00:44.069Z,97227.22
2022-08-17T09:04:23.674Z,97233.53
2022-08-17T09:07:35.011Z,97236.25
2022-08-17T09:10:57.002Z,97230.28
2022-08-17T09:14:21.278Z,97232.69
2022-08-17T09:17:43.468Z,97237.63
2022-08-17T09:20:59.721Z,97247.75
2022-08-17T09:24:14.348Z,97240.66
2022-08-17T09:27:35.671Z,97244.75
2022-08-17T09:30:43.707Z,97245.00
2022-08-17T09:33:48.449Z,97234.31
2022-08-17T09:36:56.087Z,97233.81
2022-08-17T09:40:23.758Z,97229.63
2022-08-17T09:43:31.683Z,97237.22
2022-08-17T09:46:39.794Z,97234.16
2022-08-17T09:49:46.710Z,97234.06
2022-08-17T09:52:53.088Z,97239.69
2022-08-17T09:56:13.119Z,97233.94
2022-08-17T09:59:23.917Z,97218.97
2022-08-17T10:02:43.064Z,97217.84
2022-08-17T10:05:46.582Z,97221.34
2022-08-17T10:08:54.303Z,97228.19
2022-08-17T10:12:46.421Z,97227.19
2022-08-17T10:16:08.282Z,97220.78
2022-08-17T10:19:22.622Z,97218.13
2022-08-17T10:22:59.178Z,97214.84
2022-08-17T10:26:16.984Z,97210.13
2022-08-17T10:29:48.862Z,97214.59
2022-08-17T10:32:56.251Z,97209.75
2022-08-17T10:36:11.352Z,97212.19
2022-08-17T10:39:22.353Z,97213.91
2022-08-17T10:42:34.990Z,97195.50
2022-08-17T10:46:30.695Z,97189.25
2022-08-17T10:49:17.566Z,97196.47
2022-08-17T10:52:19.496Z,97195.00
2022-08-17T10:55:21.772Z,97195.06
2022-08-17T10:58:24.798Z,97193.13
2022-08-17T11:01:32.396Z,97184.09
2022-08-17T11:04:55.889Z,97190.38
2022-08-17T11:08:29.703Z,97182.38
2022-08-17T11:12:02.805Z,97176.47
2022-08-17T11:15:19.836Z,97188.22
2022-08-17T11:18:56.240Z,97179.75
2022-08-17T11:22:39.182Z,97169.78
2022-08-17T11:25:48.161Z,97177.03
2022-08-17T11:28:52.663Z,97172.03
2022-08-17T11:32:06.717Z,97164.19
2022-08-17T11:35:22.380Z,97160.38
2022-08-17T11:38:46.313Z,97161.44
2022-08-17T11:42:25.928Z,97152.53
2022-08-17T11:45:33.287Z,97152.00
2022-08-17T11:49:12.047Z,97144.63
2022-08-17T11:52:40.130Z,97153.63
2022-08-17T11:55:44.986Z,97154.22
2022-08-17T11:58:47.156Z,97145.78
2022-08-17T12:02:19.988Z,97151.25
2022-08-17T12:05:32.448Z,97146.84
2022-08-17T12:08:43.567Z,97141.56
2022-08-17T12:12:12.137Z,97129.19
2022-08-17T12:15:27.453Z,97133.03
2022-08-17T12:18:36.085Z,97126.22
2022-08-17T12:21:55.399Z,97142.06
2022-08-17T12:25:11.051Z,97132.22
2022-08-17T12:28:29.878Z,97118.31
2022-08-17T12:31:37.329Z,97117.88
2022-08-17T12:34:41.999Z,97116.00
2022-08-17T12:37:49.487Z,97112.91
2022-08-17T12:40:58.133Z,97116.41
2022-08-17T12:44:13.625Z,97111.91
2022-08-17T12:47:22.194Z,97111.28
2022-08-17T12:50:29.192Z,97114.13
2022-08-17T12:53:35.375Z,97102.28
2022-08-17T12:56:37.438Z,97119.44
2022-08-17T12:59:47.575Z,97111.84
2022-08-17T13:03:13.395Z,97121.97
2022-08-17T13:06:31.766Z,97111.59
2022-08-17T13:09:40.500Z,97102.44
2022-08-17T13:12:43.212Z,97104.28
2022-08-17T13:15:56.286Z,97101.97
2022-08-17T13:19:15.365Z,97100.31
2022-08-17T13:22:22.565Z,97104.50
2022-08-17T13:25:26.846Z,97110.69
2022-08-17T13:28:29.884Z,97100.63
2022-08-17T13:31:52.450Z,97091.44
2022-08-17T13:35:13.766Z,97090.75
2022-08-17T13:38:47.458Z,97086.03
2022-08-17T13:41:53.167Z,97079.78
2022-08-17T13:44:55.278Z,97088.88
2022-08-17T13:48:12.376Z,97078.38
2022-08-17T13:51:24.963Z,97080.78
2022-08-17T13:54:29.718Z,97070.00
2022-08-17T13:57:31.947Z,97070.22
2022-08-17T14:00:36.879Z,97078.47
2022-08-17T14:03:38.944Z,97088.78
2022-08-17T14:06:55.220Z,97090.16
2022-08-17T14:10:09.551Z,97082.66
2022-08-17T14:13:13.367Z,97086.44
2022-08-17T14:16:15.772Z,97087.38
2022-08-17T14:19:18.213Z,97081.03
2022-08-17T14:22:28.042Z,97084.13
2022-08-17T14:25:32.541Z,97071.31
2022-08-17T14:28:36.498Z,97067.25
2022-08-17T14:31:39.157Z,97074.94
2022-08-17T14:34:41.254Z,97062.53
2022-08-17T14:37:45.914Z,97071.63
2022-08-17T14:40:48.939Z,97060.97
2022-08-17T14:43:53.651Z,97056.91
2022-08-17T14:46:55.615Z,97067.56
2022-08-17T14:49:58.271Z,97071.13
2022-08-17T14:53:01.707Z,97063.44
2022-08-17T14:56:04.725Z,97067.06
2022-08-17T14:59:09.690Z,97066.44
2022-08-17T15:02:12.399Z,97066.00
2022-08-17T15:05:16.676Z,97068.81
2022-08-17T15:08:19.741Z,97070.72
2022-08-17T15:11:21.851Z,97066.66
2022-08-17T15:14:23.955Z,97062.50
2022-08-17T15:17:25.978Z,97065.72
2022-08-17T15:20:49.372Z,97065.38
2022-08-17T15:23:51.348Z,97062.19
2022-08-17T15:26:53.335Z,97066.63
2022-08-17T15:29:55.317Z,97070.41
2022-08-17T15:32:59.257Z,97059.44
2022-08-17T15:36:06.695Z,97060.31
2022-08-17T15:39:08.691Z,97062.59
2022-08-17T15:42:10.704Z,97062.53
2022-08-17T15:45:14.123Z,97075.00
2022-08-17T15:48:16.226Z,97068.25
2022-08-17T15:51:22.662Z,97062.53
2022-08-17T15:54:24.723Z,97063.34
2022-08-17T15:57:33.990Z,97056.94
2022-08-17T16:00:49.442Z,97061.84
2022-08-17T16:04:04.191Z,97066.03
2022-08-17T16:07:10.781Z,97058.75
2022-08-17T16:10:18.230Z,97062.75
2022-08-17T16:13:23.989Z,97062.06
2022-08-17T16:16:26.306Z,97057.50
2022-08-17T16:19:28.849Z,97059.03
2022-08-17T16:22:37.672Z,97068.34
2022-08-17T16:25:53.587Z,97061.97
2022-08-17T16:28:57.797Z,97059.47
2022-08-17T16:32:08.850Z,97059.22
2022-08-17T16:35:13.059Z,97067.44
2022-08-17T16:38:15.054Z,97061.50
2022-08-17T16:41:37.679Z,97071.31
2022-08-17T16:44:39.682Z,97073.44
2022-08-17T16:47:42.203Z,97082.53
2022-08-17T16:50:44.339Z,97079.69
2022-08-17T16:54:07.094Z,97095.81
2022-08-17T16:57:11.355Z,97084.25
2022-08-17T17:00:16.614Z,97091.63
2022-08-17T17:03:21.756Z,97089.25
2022-08-17T17:06:51.328Z,97089.47
2022-08-17T17:09:55.644Z,97093.28
2022-08-17T17:13:01.395Z,97090.91
2022-08-17T17:16:05.364Z,97089.28
2022-08-17T17:19:35.634Z,97098.44
2022-08-17T17:22:48.426Z,97097.13
2022-08-17T17:26:03.435Z,97098.56
2022-08-17T17:29:33.976Z,97096.22
2022-08-17T17:33:14.657Z,97093.81
2022-08-17T17:36:38.303Z,97108.31
2022-08-17T17:39:56.994Z,97105.78
2022-08-17T17:43:20.438Z,97111.25
2022-08-17T17:46:29.311Z,97105.00
2022-08-17T17:49:38.461Z,97114.03
2022-08-17T17:52:50.482Z,97108.25
2022-08-17T17:55:59.690Z,97106.88
2022-08-17T17:59:21.218Z,97118.53
2022-08-17T18:02:51.784Z,97119.66
2022-08-17T18:06:09.865Z,97122.09
2022-08-17T18:09:12.298Z,97131.75
2022-08-17T18:13:05.546Z,97144.00
2022-08-17T18:16:12.379Z,97139.25
2022-08-17T18:19:20.120Z,97137.09
2022-08-17T18:22:23.945Z,97133.28
2022-08-17T18:25:46.160Z,97133.47
2022-08-17T18:28:51.648Z,97133.94
2022-08-17T18:32:15.368Z,97136.41
2022-08-17T18:35:20.352Z,97136.91
2022-08-17T18:38:36.872Z,97146.59
2022-08-17T18:41:45.139Z,97142.28
2022-08-17T18:44:49.611Z,97149.16
2022-08-17T18:47:56.104Z,97145.06
2022-08-17T18:51:02.042Z,97151.28
2022-08-17T18:54:23.066Z,97166.25
2022-08-17T18:57:33.032Z,97160.31
2022-08-17T19:00:41.327Z,97155.59
2022-08-17T19:03:43.644Z,97161.41
2022-08-17T19:06:45.670Z,97166.41
2022-08-17T19:09:55.480Z,97164.34
2022-08-17T19:13:29.143Z,97155.91
2022-08-17T19:17:12.658Z,97153.00
2022-08-17T19:20:20.310Z,97152.22
2022-08-17T19:23:33.249Z,97152.59
2022-08-17T19:26:53.609Z,97159.19
2022-08-17T19:30:11.895Z,97155.91
2022-08-17T19:33:14.289Z,97155.28
2022-08-17T19:36:22.480Z,97149.47
2022-08-17T19:39:38.137Z,97144.09
2022-08-17T19:43:06.939Z,97138.72
2022-08-17T19:46:26.397Z,97131.88
2022-08-17T19:50:07.201Z,97131.88
2022-08-17T19:53:36.697Z,97144.41
2022-08-17T19:57:01.969Z,97143.16
2022-08-17T20:00:14.537Z,97149.56
2022-08-17T20:03:25.926Z,97144.97
2022-08-17T20:06:32.111Z,97141.44
2022-08-17T20:09:38.519Z,97145.16
2022-08-17T20:12:44.861Z,97143.09
2022-08-17T20:15:47.770Z,97144.50
2022-08-17T20:18:59.889Z,97144.66
2022-08-17T20:22:11.715Z,97148.94
2022-08-17T20:25:40.976Z,97150.75
2022-08-17T20:29:08.470Z,97151.09
2022-08-17T20:32:19.105Z,97144.66
2022-08-17T20:35:21.200Z,97145.75
2022-08-17T20:38:44.104Z,97149.25
2022-08-17T20:42:06.311Z,97140.78
2022-08-17T20:46:02.069Z,97146.47
2022-08-17T20:49:37.997Z,97155.06
2022-08-17T20:52:46.131Z,97157.47
2022-08-17T20:55:51.974Z,97167.63
2022-08-17T20:58:55.717Z,97177.91
2022-08-17T21:02:18.770Z,97188.81
2022-08-17T21:05:37.491Z,97203.44
2022-08-17T21:09:29.963Z,97203.19
2022-08-17T21:13:04.686Z,97206.69
2022-08-17T21:16:30.159Z,97196.94
2022-08-17T21:20:09.839Z,97211.34
2022-08-17T21:23:16.702Z,97217.28
2022-08-17T21:26:32.534Z,97222.22
2022-08-17T21:29:40.533Z,97228.59
2022-08-17T21:32:44.632Z,97218.38
2022-08-17T21:35:50.364Z,97212.19
2022-08-17T21:39:00.390Z,97211.19
2022-08-17T21:42:02.919Z,97213.41
2022-08-17T21:45:25.452Z,97204.88
2022-08-17T21:48:28.942Z,97202.38
2022-08-17T21:51:32.630Z,97194.09
2022-08-17T21:54:42.863Z,97187.09
2022-08-17T21:57:52.791Z,97181.44
2022-08-17T22:01:13.485Z,97185.63
2022-08-17T22:04:19.737Z,97197.03
2022-08-17T22:07:45.962Z,97210.06
2022-08-17T22:10:50.864Z,97206.91
2022-08-17T22:14:00.598Z,97212.81
2022-08-17T22:17:17.016Z,97207.75
2022-08-17T22:20:20.996Z,97202.94
2022-08-17T22:23:52.457Z,97200.47
2022-08-17T22:27:11.732Z,97200.72
2022-08-17T22:30:28.830Z,97196.56
2022-08-17T22:33:36.372Z,97195.97
2022-08-17T22:36:41.934Z,97188.03
2022-08-17T22:39:44.039Z,97185.47
2022-08-17T22:42:48.183Z,97191.19
2022-08-17T22:45:54.866Z,97200.69
2022-08-17T22:48:59.483Z,97181.06
2022-08-17T22:52:05.781Z,97169.53
2022-08-17T22:55:32.396Z,97166.41
2022-08-17T22:58:58.703Z,97160.63
2022-08-17T23:02:26.862Z,97153.69
2022-08-17T23:05:30.151Z,97157.75
2022-08-17T23:08:35.497Z,97150.47
2022-08-17T23:11:50.372Z,97144.47
2022-08-17T23:15:01.329Z,97138.75
2022-08-17T23:18:05.016Z,97142.38
2022-08-17T23:21:07.865Z,97141.38
2022-08-17T23:24:11.393Z,97136.03
2022-08-17T23:27:13.619Z,97136.38
2022-08-17T23:30:15.663Z,97141.28
2022-08-17T23:33:30.244Z,97141.66
2022-08-17T23:36:32.701Z,97137.88
2022-08-17T23:39:35.496Z,97143.75
2022-08-17T23:42:46.217Z,97138.97
2022-08-17T23:45:49.165Z,97126.72
2022-08-17T23:48:54.326Z,97120.06
2022-08-17T23:51:56.780Z,97118.34
2022-08-17T23:54:59.593Z,97105.72
2022-08-17T23:58:04.248Z,97110.59
